createdAt,value
2022-10-22T00:00:44.145Z,97.78
2022-10-22T00:01:44.400Z,97.67
2022-10-22T00:02:43.879Z,97.67
2022-10-22T00:03:44.630Z,97.58
2022-10-22T00:05:43.818Z,97.47
2022-10-22T00:06:43.860Z,97.58
2022-10-22T00:07:44.088Z,97.78
2022-10-22T00:08:44.088Z,97.67
2022-10-22T00:09:44.049Z,97.88
2022-10-22T00:10:43.907Z,97.98
2022-10-22T00:11:43.860Z,97.88
2022-10-22T00:12:44.271Z,97.88
2022-10-22T00:13:43.951Z,97.88
2022-10-22T00:14:43.828Z,97.88
2022-10-22T00:15:44.300Z,98.18
2022-10-22T00:16:43.889Z,98.08
2022-10-22T00:17:44.369Z,97.98
2022-10-22T00:18:44.362Z,97.88
2022-10-22T00:19:43.965Z,97.58
2022-10-22T00:20:43.927Z,97.58
2022-10-22T00:21:44.596Z,97.58
2022-10-22T00:22:44.169Z,97.58
2022-10-22T00:23:44.066Z,97.47
2022-10-22T00:24:44.666Z,97.23
2022-10-22T00:25:44.567Z,97.13
2022-10-22T00:26:44.735Z,96.92
2022-10-22T00:27:43.967Z,96.82
2022-10-22T00:28:43.677Z,96.82
2022-10-22T00:29:43.776Z,96.82
2022-10-22T00:30:43.987Z,96.82
2022-10-22T00:31:43.662Z,96.62
2022-10-22T00:32:43.772Z,96.72
2022-10-22T00:33:43.677Z,96.62
2022-10-22T00:34:43.628Z,96.72
2022-10-22T00:35:43.656Z,96.82
2022-10-22T00:36:43.669Z,96.82
2022-10-22T00:37:43.666Z,96.92
2022-10-22T00:38:43.652Z,96.82
2022-10-22T00:39:43.686Z,96.62
2022-10-22T00:40:43.766Z,96.72
2022-10-22T00:41:43.666Z,96.72
2022-10-22T00:42:44.073Z,96.97
2022-10-22T00:43:43.684Z,96.92
2022-10-22T00:44:43.777Z,96.72
2022-10-22T00:45:43.916Z,96.51
2022-10-22T00:46:43.914Z,96.51
2022-10-22T00:47:43.524Z,96.42
2022-10-22T00:48:44.036Z,96.51
2022-10-22T00:49:43.565Z,96.62
2022-10-22T00:50:43.521Z,96.87
2022-10-22T00:51:43.976Z,97.17
2022-10-22T00:52:43.953Z,97.17
2022-10-22T00:53:43.728Z,97.38
2022-10-22T00:54:43.536Z,97.58
2022-10-22T00:55:43.954Z,97.67
2022-10-22T00:56:44.063Z,97.88
2022-10-22T00:57:44.058Z,97.98
2022-10-22T00:58:43.974Z,97.88
2022-10-22T00:59:43.813Z,97.88
2022-10-22T01:00:43.459Z,97.98
2022-10-22T01:01:43.442Z,98.08
2022-10-22T01:02:43.691Z,98.08
2022-10-22T01:03:43.423Z,97.88
2022-10-22T01:04:43.433Z,97.88
2022-10-22T01:05:43.907Z,97.67
2022-10-22T01:06:43.653Z,97.67
2022-10-22T01:07:43.439Z,97.47
2022-10-22T01:08:43.500Z,97.47
2022-10-22T01:09:43.877Z,97.58
2022-10-22T01:10:43.377Z,97.58
2022-10-22T01:11:44.064Z,97.58
2022-10-22T01:12:43.622Z,97.47
2022-10-22T01:13:43.464Z,97.47
2022-10-22T01:14:43.382Z,97.58
2022-10-22T01:15:43.471Z,97.58
2022-10-22T01:16:43.321Z,97.67
2022-10-22T01:17:43.718Z,97.58
2022-10-22T01:18:43.343Z,97.58
2022-10-22T01:19:43.389Z,97.47
2022-10-22T01:20:43.345Z,97.47
2022-10-22T01:21:43.361Z,97.58
2022-10-22T01:22:43.351Z,97.78
2022-10-22T01:23:43.321Z,97.88
2022-10-22T01:24:43.256Z,97.88
2022-10-22T01:25:43.339Z,97.98
2022-10-22T01:26:43.345Z,98.18
2022-10-22T01:27:43.728Z,98.18
2022-10-22T01:28:43.360Z,98.18
2022-10-22T01:29:43.220Z,97.98
2022-10-22T01:30:43.376Z,97.88
2022-10-22T01:31:43.271Z,97.78
2022-10-22T01:32:43.239Z,97.78
2022-10-22T01:33:43.248Z,97.78
2022-10-22T01:34:43.230Z,97.88
2022-10-22T01:35:43.461Z,97.78
2022-10-22T01:36:43.439Z,97.78
2022-10-22T01:37:43.686Z,97.67
2022-10-22T01:38:43.178Z,97.88
2022-10-22T01:39:43.280Z,98.18
2022-10-22T01:40:43.268Z,98.54
2022-10-22T01:41:43.189Z,98.63
2022-10-22T01:42:43.185Z,98.74
2022-10-22T01:43:43.677Z,98.94
2022-10-22T01:44:43.683Z,99.24
2022-10-22T01:45:43.680Z,99.14
2022-10-22T01:46:43.698Z,99.04
2022-10-22T01:47:43.971Z,98.84
2022-10-22T01:48:43.697Z,98.84
2022-10-22T01:49:43.147Z,98.74
2022-10-22T01:50:43.708Z,98.74
2022-10-22T01:51:43.718Z,98.63
2022-10-22T01:52:43.127Z,98.63
2022-10-22T01:53:43.117Z,98.43
2022-10-22T01:54:43.156Z,98.43
2022-10-22T01:55:43.136Z,98.54
2022-10-22T01:56:43.357Z,98.94
2022-10-22T01:57:43.568Z,99.08
2022-10-22T01:58:43.367Z,99.29
2022-10-22T01:59:43.376Z,99.39
2022-10-22T02:00:43.433Z,99.69
2022-10-22T02:01:43.176Z,99.99
2022-10-22T02:02:43.068Z,99.99
2022-10-22T02:03:43.036Z,99.99
2022-10-22T02:04:43.619Z,99.99
2022-10-22T02:05:43.026Z,99.99
2022-10-22T02:06:43.615Z,99.99
2022-10-22T02:07:43.902Z,99.99
2022-10-22T02:08:43.009Z,99.99
2022-10-22T02:09:43.044Z,99.99
2022-10-22T02:10:42.976Z,99.99
2022-10-22T02:11:43.875Z,99.99
2022-10-22T02:12:43.271Z,99.80
2022-10-22T02:13:43.896Z,99.99
2022-10-22T02:14:42.935Z,99.99
2022-10-22T02:15:43.064Z,99.80
2022-10-22T02:16:42.922Z,99.69
2022-10-22T02:17:43.313Z,99.80
2022-10-22T02:18:42.886Z,99.80
2022-10-22T02:19:43.134Z,99.90
2022-10-22T02:20:42.895Z,99.99
2022-10-22T02:21:43.815Z,99.99
2022-10-22T02:22:43.257Z,99.99
2022-10-22T02:23:43.385Z,99.99
2022-10-22T02:24:43.163Z,99.99
2022-10-22T02:25:43.075Z,99.99
2022-10-22T02:26:43.004Z,99.99
2022-10-22T02:27:42.902Z,99.99
2022-10-22T02:28:42.963Z,99.99
2022-10-22T02:29:42.995Z,99.99
2022-10-22T02:30:43.013Z,99.99
2022-10-22T02:31:42.992Z,99.90
2022-10-22T02:32:42.999Z,99.69
2022-10-22T02:33:42.782Z,99.69
2022-10-22T02:34:42.821Z,99.90
2022-10-22T02:35:43.223Z,99.95
2022-10-22T02:36:46.676Z,99.99
2022-10-22T02:37:43.263Z,99.99
2022-10-22T02:38:42.812Z,99.99
2022-10-22T02:39:42.841Z,99.99
2022-10-22T02:40:43.442Z,99.80
2022-10-22T02:41:43.041Z,99.69
2022-10-22T02:42:42.894Z,99.39
2022-10-22T02:43:43.004Z,99.49
2022-10-22T02:44:42.820Z,99.80
2022-10-22T02:45:43.750Z,99.69
2022-10-22T02:46:42.710Z,99.90
2022-10-22T02:47:42.912Z,99.99
2022-10-22T02:48:43.092Z,99.80
2022-10-22T02:49:42.881Z,99.69
2022-10-22T02:50:42.893Z,99.90
2022-10-22T02:51:43.510Z,99.69
2022-10-22T02:52:43.678Z,99.69
2022-10-22T02:53:42.712Z,99.69
2022-10-22T02:54:43.121Z,99.55
2022-10-22T02:55:42.951Z,99.49
2022-10-22T02:56:42.669Z,99.49
2022-10-22T02:57:43.201Z,99.49
2022-10-22T02:58:43.153Z,99.24
2022-10-22T02:59:43.363Z,99.14
2022-10-22T03:00:42.631Z,98.94
2022-10-22T03:01:42.990Z,98.84
2022-10-22T03:02:42.620Z,98.74
2022-10-22T03:03:43.010Z,98.63
2022-10-22T03:04:42.630Z,98.74
2022-10-22T03:05:42.614Z,98.94
2022-10-22T03:06:42.725Z,99.14
2022-10-22T03:07:42.932Z,99.44
2022-10-22T03:08:42.678Z,99.49
2022-10-22T03:09:42.615Z,99.49
2022-10-22T03:10:42.659Z,99.55
2022-10-22T03:11:42.667Z,99.44
2022-10-22T03:12:42.630Z,99.24
2022-10-22T03:13:42.866Z,99.04
2022-10-22T03:14:42.847Z,98.84
2022-10-22T03:15:42.655Z,98.74
2022-10-22T03:16:42.874Z,98.74
2022-10-22T03:17:42.756Z,98.74
2022-10-22T03:18:42.478Z,98.63
2022-10-22T03:19:42.503Z,98.74
2022-10-22T03:20:42.416Z,98.74
2022-10-22T03:21:42.477Z,98.74
2022-10-22T03:22:42.423Z,98.74
2022-10-22T03:23:42.425Z,98.94
2022-10-22T03:24:42.756Z,98.84
2022-10-22T03:25:42.935Z,98.94
2022-10-22T03:26:42.526Z,98.84
2022-10-22T03:27:43.019Z,98.94
2022-10-22T03:28:42.383Z,98.84
2022-10-22T03:29:42.962Z,99.04
2022-10-22T03:30:42.534Z,99.04
2022-10-22T03:31:42.956Z,98.84
2022-10-22T03:32:42.375Z,98.74
2022-10-22T03:33:43.034Z,98.63
2022-10-22T03:34:42.364Z,98.54
2022-10-22T03:35:42.806Z,98.43
2022-10-22T03:36:42.776Z,98.54
2022-10-22T03:37:43.180Z,98.54
2022-10-22T03:38:42.374Z,98.43
2022-10-22T03:39:43.021Z,98.43
2022-10-22T03:40:43.026Z,98.43
2022-10-22T03:41:42.424Z,98.43
2022-10-22T03:42:42.421Z,98.28
2022-10-22T03:43:42.451Z,98.23
2022-10-22T03:44:42.331Z,97.98
2022-10-22T03:45:42.438Z,98.08
2022-10-22T03:46:42.502Z,97.98
2022-10-22T03:47:42.576Z,97.88
2022-10-22T03:48:42.305Z,97.78
2022-10-22T03:49:42.555Z,97.78
2022-10-22T03:50:42.273Z,97.78
2022-10-22T03:51:42.285Z,97.98
2022-10-22T03:52:42.312Z,97.88
2022-10-22T03:53:42.492Z,98.13
2022-10-22T03:54:42.684Z,97.98
2022-10-22T03:55:42.918Z,97.78
2022-10-22T03:56:42.932Z,97.78
2022-10-22T03:57:43.155Z,97.78
2022-10-22T03:58:43.054Z,97.58
2022-10-22T03:59:42.524Z,97.92
2022-10-22T04:00:42.537Z,97.78
2022-10-22T04:01:42.737Z,97.67
2022-10-22T04:02:42.740Z,97.67
2022-10-22T04:03:42.984Z,97.67
2022-10-22T04:04:42.990Z,97.67
2022-10-22T04:05:42.810Z,97.58
2022-10-22T04:06:42.576Z,97.38
2022-10-22T04:07:42.940Z,97.07
2022-10-22T04:08:43.021Z,96.97
2022-10-22T04:09:42.199Z,96.77
2022-10-22T04:10:42.198Z,96.66
2022-10-22T04:11:42.199Z,96.77
2022-10-22T04:12:42.238Z,96.66
2022-10-22T04:13:42.198Z,96.46
2022-10-22T04:14:42.431Z,96.36
2022-10-22T04:15:42.140Z,96.22
2022-10-22T04:16:42.068Z,96.15
2022-10-22T04:17:42.407Z,95.81
2022-10-22T04:18:42.038Z,95.71
2022-10-22T04:19:42.067Z,95.71
2022-10-22T04:20:42.038Z,95.50
2022-10-22T04:21:42.048Z,95.71
2022-10-22T04:22:42.050Z,95.81
2022-10-22T04:23:42.058Z,95.81
2022-10-22T04:24:42.104Z,95.81
2022-10-22T04:25:42.066Z,95.81
2022-10-22T04:26:42.098Z,95.81
2022-10-22T04:27:42.743Z,95.81
2022-10-22T04:28:42.511Z,96.01
2022-10-22T04:29:42.516Z,96.26
2022-10-22T04:30:42.106Z,96.22
2022-10-22T04:31:41.936Z,96.36
2022-10-22T04:32:42.809Z,96.36
2022-10-22T04:33:41.937Z,96.36
2022-10-22T04:34:41.948Z,96.56
2022-10-22T04:35:41.936Z,96.56
2022-10-22T04:36:41.944Z,96.66
2022-10-22T04:37:42.382Z,96.87
2022-10-22T04:38:41.914Z,96.87
2022-10-22T04:39:41.957Z,96.87
2022-10-22T04:40:41.909Z,97.07
2022-10-22T04:41:41.877Z,97.17
2022-10-22T04:42:41.894Z,97.17
2022-10-22T04:43:41.951Z,97.38
2022-10-22T04:44:42.015Z,97.47
2022-10-22T04:45:41.888Z,97.72
2022-10-22T04:46:42.014Z,97.92
2022-10-22T04:47:42.308Z,98.43
2022-10-22T04:48:41.858Z,98.54
2022-10-22T04:49:42.024Z,98.74
2022-10-22T04:50:42.033Z,98.94
2022-10-22T04:51:41.875Z,99.08
2022-10-22T04:52:41.875Z,99.08
2022-10-22T04:53:41.903Z,99.29
2022-10-22T04:54:41.893Z,99.29
2022-10-22T04:55:41.856Z,99.29
2022-10-22T04:56:41.911Z,99.39
2022-10-22T04:57:42.137Z,99.80
2022-10-22T04:58:41.826Z,99.99
2022-10-22T04:59:41.882Z,99.99
2022-10-22T05:00:41.791Z,99.99
2022-10-22T05:01:43.125Z,99.90
2022-10-22T05:02:41.753Z,99.90
2022-10-22T05:03:41.713Z,99.90
2022-10-22T05:04:41.943Z,99.85
2022-10-22T05:05:41.705Z,99.75
2022-10-22T05:06:41.930Z,99.75
2022-10-22T05:07:42.374Z,99.85
2022-10-22T05:08:41.986Z,99.65
2022-10-22T05:09:41.943Z,99.65
2022-10-22T05:10:41.653Z,99.44
2022-10-22T05:11:41.964Z,99.44
2022-10-22T05:12:41.831Z,99.55
2022-10-22T05:13:41.641Z,99.55
2022-10-22T05:14:44.096Z,99.50
2022-10-22T05:15:41.641Z,99.55
2022-10-22T05:16:41.655Z,99.55
2022-10-22T05:17:41.951Z,99.70
2022-10-22T05:18:41.613Z,99.75
2022-10-22T05:19:41.610Z,99.95
2022-10-22T05:20:41.592Z,99.95
2022-10-22T05:21:41.621Z,99.99
2022-10-22T05:22:41.632Z,99.99
2022-10-22T05:23:41.632Z,99.99
2022-10-22T05:24:41.640Z,99.99
2022-10-22T05:25:41.640Z,99.99
2022-10-22T05:26:41.650Z,99.80
2022-10-22T05:27:42.033Z,99.70
2022-10-22T05:28:41.660Z,99.70
2022-10-22T05:29:41.718Z,99.80
2022-10-22T05:30:41.588Z,99.99
2022-10-22T05:31:41.518Z,99.99
2022-10-22T05:32:41.523Z,99.99
2022-10-22T05:33:41.559Z,99.99
2022-10-22T05:34:41.547Z,99.99
2022-10-22T05:35:45.642Z,99.99
2022-10-22T05:36:41.517Z,99.99
2022-10-22T05:37:41.878Z,99.99
2022-10-22T05:38:41.485Z,99.99
2022-10-22T05:39:41.528Z,99.99
2022-10-22T05:40:41.538Z,99.99
2022-10-22T05:41:41.547Z,99.99
2022-10-22T05:42:41.925Z,99.96
2022-10-22T05:43:41.567Z,99.86
2022-10-22T05:44:41.558Z,99.86
2022-10-22T05:45:41.577Z,99.86
2022-10-22T05:46:41.687Z,99.76
2022-10-22T05:47:41.638Z,99.76
2022-10-22T05:48:41.485Z,99.66
2022-10-22T05:49:41.498Z,99.96
2022-10-22T05:50:41.476Z,99.99
2022-10-22T05:51:41.490Z,99.99
2022-10-22T05:52:41.783Z,99.99
2022-10-22T05:53:41.436Z,99.99
2022-10-22T05:54:41.444Z,99.99
2022-10-22T05:55:41.344Z,99.99
2022-10-22T05:56:41.517Z,99.99
2022-10-22T05:57:41.658Z,99.99
2022-10-22T05:58:41.447Z,99.99
2022-10-22T05:59:41.684Z,99.99
2022-10-22T06:00:41.737Z,99.99
2022-10-22T06:01:41.525Z,99.99
2022-10-22T06:02:41.567Z,99.99
2022-10-22T06:03:41.315Z,99.99
2022-10-22T06:04:41.345Z,99.99
2022-10-22T06:05:41.575Z,99.99
2022-10-22T06:06:41.917Z,99.99
2022-10-22T06:07:41.926Z,99.99
2022-10-22T06:08:41.341Z,99.99
2022-10-22T06:09:41.326Z,99.99
2022-10-22T06:10:41.334Z,99.99
2022-10-22T06:11:41.337Z,99.99
2022-10-22T06:12:41.673Z,99.99
2022-10-22T06:13:41.305Z,99.99
2022-10-22T06:14:41.564Z,99.99
2022-10-22T06:15:41.258Z,99.99
2022-10-22T06:16:41.433Z,99.99
2022-10-22T06:17:41.304Z,99.99
2022-10-22T06:18:41.784Z,99.99
2022-10-22T06:19:41.693Z,99.99
2022-10-22T06:20:41.802Z,99.99
2022-10-22T06:21:41.393Z,99.99
2022-10-22T06:22:41.812Z,99.99
2022-10-22T06:23:41.625Z,99.99
2022-10-22T06:24:42.939Z,99.99
2022-10-22T06:25:41.235Z,99.99
2022-10-22T06:26:42.066Z,99.99
2022-10-22T06:27:41.311Z,99.99
2022-10-22T06:28:41.515Z,99.99
2022-10-22T06:29:41.320Z,99.99
2022-10-22T06:30:43.050Z,99.99
2022-10-22T06:31:41.741Z,99.99
2022-10-22T06:32:41.751Z,99.99
2022-10-22T06:33:41.484Z,99.99
2022-10-22T06:34:41.763Z,99.99
2022-10-22T06:35:41.271Z,99.99
2022-10-22T06:37:41.364Z,99.99
2022-10-22T06:38:41.308Z,99.99
2022-10-22T06:39:41.920Z,99.86
2022-10-22T06:40:41.930Z,99.61
2022-10-22T06:41:41.801Z,99.41
2022-10-22T06:42:41.563Z,99.21
2022-10-22T06:43:41.123Z,99.10
2022-10-22T06:44:41.539Z,99.01
2022-10-22T06:45:41.050Z,98.90
2022-10-22T06:46:43.386Z,98.90
2022-10-22T06:47:41.325Z,99.01
2022-10-22T06:48:41.051Z,99.10
2022-10-22T06:49:41.189Z,99.01
2022-10-22T06:50:41.181Z,98.90
2022-10-22T06:51:40.980Z,98.90
2022-10-22T06:52:40.999Z,98.80
2022-10-22T06:53:41.191Z,98.90
2022-10-22T06:54:41.295Z,98.90
2022-10-22T06:55:41.080Z,98.90
2022-10-22T06:56:41.429Z,98.70
2022-10-22T06:57:41.363Z,98.50
2022-10-22T06:58:41.549Z,98.19
2022-10-22T06:59:41.228Z,97.89
2022-10-22T07:00:41.661Z,97.85
2022-10-22T07:01:41.701Z,97.89
2022-10-22T07:02:41.613Z,97.74
2022-10-22T07:03:41.679Z,97.89
2022-10-22T07:04:41.269Z,97.89
2022-10-22T07:05:40.889Z,97.99
2022-10-22T07:06:41.606Z,98.09
2022-10-22T07:07:40.883Z,98.29
2022-10-22T07:08:40.976Z,98.19
2022-10-22T07:09:40.901Z,98.09
2022-10-22T07:10:40.895Z,97.89
2022-10-22T07:11:40.899Z,97.44
2022-10-22T07:12:41.053Z,97.03
2022-10-22T07:13:40.825Z,96.73
2022-10-22T07:14:40.816Z,96.38
2022-10-22T07:15:40.868Z,96.28
2022-10-22T07:16:40.886Z,96.28
2022-10-22T07:18:40.956Z,95.78
2022-10-22T07:19:40.958Z,95.47
2022-10-22T07:20:40.807Z,95.32
2022-10-22T07:21:41.005Z,95.22
2022-10-22T07:22:41.053Z,95.12
2022-10-22T07:23:40.878Z,95.12
2022-10-22T07:24:40.886Z,95.02
2022-10-22T07:25:40.995Z,94.92
2022-10-22T07:26:41.009Z,95.02
2022-10-22T07:27:41.303Z,94.92
2022-10-22T07:28:41.017Z,94.92
2022-10-22T07:29:40.740Z,94.82
2022-10-22T07:30:40.725Z,94.72
2022-10-22T07:31:41.067Z,94.72
2022-10-22T07:32:41.047Z,94.62
2022-10-22T07:33:41.046Z,94.51
2022-10-22T07:34:43.153Z,94.42
2022-10-22T07:35:40.747Z,94.17
2022-10-22T07:36:40.666Z,94.37
2022-10-22T07:37:41.188Z,94.17
2022-10-22T07:38:41.085Z,94.07
2022-10-22T07:39:41.195Z,93.76
2022-10-22T07:40:40.884Z,93.66
2022-10-22T07:41:40.694Z,93.56
2022-10-22T07:42:40.797Z,93.26
2022-10-22T07:43:40.726Z,92.81
2022-10-22T07:44:40.713Z,92.81
2022-10-22T07:45:40.725Z,92.61
2022-10-22T07:46:40.730Z,92.61
2022-10-22T07:47:41.083Z,92.41
2022-10-22T07:48:40.954Z,92.00
2022-10-22T07:49:40.711Z,92.30
2022-10-22T07:50:40.592Z,92.21
2022-10-22T07:51:40.853Z,92.10
2022-10-22T07:52:40.774Z,92.00
2022-10-22T07:53:40.514Z,91.86
2022-10-22T07:54:41.083Z,91.96
2022-10-22T07:55:41.193Z,91.96
2022-10-22T07:56:41.309Z,92.06
2022-10-22T07:57:40.702Z,91.86
2022-10-22T07:58:40.501Z,91.66
2022-10-22T07:59:40.593Z,91.35
2022-10-22T08:00:40.612Z,91.35
2022-10-22T08:01:40.776Z,91.46
2022-10-22T08:02:40.856Z,91.15
2022-10-22T08:03:40.452Z,90.91
2022-10-22T08:04:40.493Z,91.01
2022-10-22T08:05:40.568Z,90.50
2022-10-22T08:06:43.489Z,91.01
2022-10-22T08:07:40.860Z,90.61
2022-10-22T08:08:41.096Z,90.41
2022-10-22T08:09:40.422Z,90.41
2022-10-22T08:10:40.886Z,90.20
2022-10-22T08:11:41.202Z,90.36
2022-10-22T08:12:40.695Z,89.65
2022-10-22T08:13:45.135Z,90.46
2022-10-22T08:14:41.272Z,90.06
2022-10-22T08:15:41.372Z,89.35
2022-10-22T08:16:41.331Z,89.35
2022-10-22T08:17:40.736Z,89.86
2022-10-22T08:18:41.401Z,89.45
2022-10-22T08:19:40.838Z,89.50
2022-10-22T08:20:40.529Z,89.59
2022-10-22T08:21:41.359Z,89.79
2022-10-22T08:22:40.861Z,89.79
2022-10-22T08:23:40.467Z,89.39
2022-10-22T08:24:41.334Z,89.39
2022-10-22T08:25:40.879Z,89.59
2022-10-22T08:26:40.381Z,89.39
2022-10-22T08:27:41.706Z,89.29
2022-10-22T08:28:40.505Z,89.15
2022-10-22T08:29:41.098Z,88.95
2022-10-22T08:30:40.709Z,88.14
2022-10-22T08:31:40.290Z,88.00
2022-10-22T08:32:40.322Z,87.29
2022-10-22T08:33:40.378Z,87.65
2022-10-22T08:34:40.331Z,86.81
2022-10-22T08:35:40.328Z,86.51
2022-10-22T08:36:40.266Z,85.76
2022-10-22T08:37:40.642Z,85.36
2022-10-22T08:38:40.450Z,85.05
2022-10-22T08:39:40.259Z,84.25
2022-10-22T08:40:40.339Z,84.41
2022-10-22T08:41:40.379Z,84.05
2022-10-22T08:42:40.593Z,84.15
2022-10-22T08:43:40.410Z,84.35
2022-10-22T08:44:40.278Z,84.25
2022-10-22T08:45:40.503Z,83.45
2022-10-22T08:46:40.234Z,83.84
2022-10-22T08:47:40.627Z,84.09
2022-10-22T08:48:40.637Z,84.39
2022-10-22T08:49:42.125Z,84.59
2022-10-22T08:50:40.130Z,84.83
2022-10-22T08:51:40.126Z,85.24
2022-10-22T08:52:40.286Z,85.34
2022-10-22T08:53:40.136Z,85.84
2022-10-22T08:54:40.076Z,86.15
2022-10-22T08:55:40.079Z,86.24
2022-10-22T08:56:40.098Z,86.15
2022-10-22T08:57:40.097Z,85.64
2022-10-22T08:58:40.196Z,86.04
2022-10-22T08:59:40.047Z,84.83
2022-10-22T09:00:40.046Z,84.39
2022-10-22T09:01:40.037Z,84.29
2022-10-22T09:02:40.497Z,84.39
2022-10-22T09:03:40.028Z,84.19
2022-10-22T09:04:40.018Z,83.34
2022-10-22T09:05:40.084Z,83.75
2022-10-22T09:06:40.040Z,83.75
2022-10-22T09:07:40.428Z,83.34
2022-10-22T09:08:40.027Z,82.44
2022-10-22T09:09:40.006Z,82.84
2022-10-22T09:10:39.975Z,82.80
2022-10-22T09:11:40.045Z,82.70
2022-10-22T09:12:39.976Z,82.20
2022-10-22T09:13:39.953Z,82.56
2022-10-22T09:14:39.937Z,82.06
2022-10-22T09:15:41.656Z,81.76
2022-10-22T09:16:39.944Z,81.26
2022-10-22T09:17:40.813Z,80.75
2022-10-22T09:18:39.929Z,80.85
2022-10-22T09:19:39.907Z,80.75
2022-10-22T09:20:39.894Z,80.65
2022-10-22T09:21:39.907Z,81.09
2022-10-22T09:22:39.928Z,81.15
2022-10-22T09:23:40.472Z,81.56
2022-10-22T09:24:39.897Z,81.59
2022-10-22T09:25:39.881Z,81.49
2022-10-22T09:26:39.892Z,81.79
2022-10-22T09:27:40.329Z,81.39
2022-10-22T09:28:39.856Z,81.13
2022-10-22T09:29:39.854Z,81.93
2022-10-22T09:30:39.828Z,81.23
2022-10-22T09:31:39.846Z,81.23
2022-10-22T09:32:40.337Z,81.73
2022-10-22T09:33:39.833Z,81.73
2022-10-22T09:34:39.854Z,82.34
2022-10-22T09:35:39.805Z,80.83
2022-10-22T09:36:39.805Z,80.73
2022-10-22T09:37:39.784Z,81.13
2022-10-22T09:38:39.774Z,80.02
2022-10-22T09:39:39.777Z,80.32
2022-10-22T09:40:39.764Z,80.63
2022-10-22T09:41:39.774Z,81.33
2022-10-22T09:42:40.072Z,80.73
2022-10-22T09:43:39.758Z,80.22
2022-10-22T09:44:40.595Z,80.43
2022-10-22T09:45:40.011Z,79.92
2022-10-22T09:46:39.749Z,79.82
2022-10-22T09:48:00.666Z,80.32
2022-10-22T09:48:39.699Z,80.52
2022-10-22T09:49:39.693Z,80.32
2022-10-22T09:50:39.722Z,80.32
2022-10-22T09:51:39.682Z,80.29
2022-10-22T09:52:40.253Z,80.19
2022-10-22T09:53:39.678Z,80.02
2022-10-22T09:54:39.651Z,80.63
2022-10-22T09:55:39.738Z,80.89
2022-10-22T09:56:39.682Z,80.79
2022-10-22T09:57:42.282Z,81.15
2022-10-22T09:58:39.634Z,80.35
2022-10-22T09:59:39.642Z,79.74
2022-10-22T10:00:39.612Z,79.41
2022-10-22T10:01:39.753Z,78.80
2022-10-22T10:02:39.606Z,79.10
2022-10-22T10:03:39.602Z,78.86
2022-10-22T10:04:39.594Z,77.96
2022-10-22T10:05:39.582Z,78.00
2022-10-22T10:06:39.762Z,77.59
2022-10-22T10:07:39.950Z,77.86
2022-10-22T10:08:39.594Z,77.76
2022-10-22T10:09:39.561Z,78.27
2022-10-22T10:10:39.551Z,78.56
2022-10-22T10:11:39.584Z,77.22
2022-10-22T10:12:39.564Z,76.42
2022-10-22T10:13:39.545Z,77.36
2022-10-22T10:14:39.539Z,76.19
2022-10-22T10:15:40.072Z,77.39
2022-10-22T10:16:39.859Z,77.73
2022-10-22T10:17:39.922Z,77.73
2022-10-22T10:18:39.521Z,78.74
2022-10-22T10:19:39.491Z,78.84
2022-10-22T10:20:39.483Z,78.84
2022-10-22T10:21:39.490Z,78.47
2022-10-22T10:22:40.653Z,79.28
2022-10-22T10:23:40.259Z,79.22
2022-10-22T10:24:39.463Z,79.56
2022-10-22T10:25:39.461Z,79.86
2022-10-22T10:26:39.478Z,80.30
2022-10-22T10:27:39.430Z,81.01
2022-10-22T10:28:39.516Z,81.01
2022-10-22T10:29:39.510Z,81.30
2022-10-22T10:30:39.490Z,82.11
2022-10-22T10:31:39.452Z,83.97
2022-10-22T10:32:39.882Z,85.88
2022-10-22T10:33:39.511Z,86.43
2022-10-22T10:34:39.412Z,87.23
2022-10-22T10:35:39.730Z,86.87
2022-10-22T10:36:39.790Z,87.48
2022-10-22T10:37:39.953Z,87.48
2022-10-22T10:38:39.980Z,86.63
2022-10-22T10:39:39.961Z,86.73
2022-10-22T10:40:39.970Z,86.83
2022-10-22T10:41:40.024Z,86.49
2022-10-22T10:42:40.445Z,86.18
2022-10-22T10:43:40.209Z,86.18
2022-10-22T10:44:40.189Z,85.58
2022-10-22T10:45:40.003Z,85.88
2022-10-22T10:46:39.301Z,84.88
2022-10-22T10:47:39.622Z,85.38
2022-10-22T10:48:39.449Z,84.27
2022-10-22T10:49:39.281Z,84.27
2022-10-22T10:50:39.261Z,83.97
2022-10-22T10:51:39.320Z,83.97
2022-10-22T10:52:39.258Z,83.97
2022-10-22T10:53:39.260Z,84.17
2022-10-22T10:55:39.249Z,84.17
2022-10-22T10:56:39.474Z,84.67
2022-10-22T10:57:39.478Z,84.51
2022-10-22T10:58:39.229Z,84.17
2022-10-22T10:59:40.268Z,84.07
2022-10-22T11:00:39.897Z,83.28
2022-10-22T11:01:39.233Z,81.99
2022-10-22T11:02:39.200Z,80.61
2022-10-22T11:03:39.178Z,79.37
2022-10-22T11:04:39.173Z,78.86
2022-10-22T11:05:39.192Z,78.22
2022-10-22T11:06:39.168Z,77.69
2022-10-22T11:07:39.187Z,76.95
2022-10-22T11:08:39.420Z,76.41
2022-10-22T11:09:39.148Z,76.21
2022-10-22T11:10:39.207Z,77.09
2022-10-22T11:11:39.139Z,78.66
2022-10-22T11:12:39.378Z,79.64
2022-10-22T11:13:39.108Z,80.89
2022-10-22T11:14:39.376Z,81.49
2022-10-22T11:15:39.829Z,80.31
2022-10-22T11:16:39.100Z,79.93
2022-10-22T11:17:39.079Z,78.27
2022-10-22T11:18:39.071Z,78.03
2022-10-22T11:19:51.017Z,79.10
2022-10-22T11:20:39.050Z,80.11
2022-10-22T11:21:39.069Z,80.65
2022-10-22T11:22:42.163Z,80.19
2022-10-22T11:23:39.097Z,81.33
2022-10-22T11:24:39.029Z,81.77
2022-10-22T11:25:39.017Z,82.28
2022-10-22T11:26:39.029Z,83.02
2022-10-22T11:27:39.389Z,83.42
2022-10-22T11:28:38.996Z,83.02
2022-10-22T11:29:38.994Z,83.62
2022-10-22T11:30:38.976Z,83.42
2022-10-22T11:31:38.996Z,82.82
2022-10-22T11:32:39.276Z,83.42
2022-10-22T11:33:38.965Z,84.07
2022-10-22T11:34:38.958Z,83.66
2022-10-22T11:35:38.947Z,83.56
2022-10-22T11:36:38.981Z,82.86
2022-10-22T11:37:39.358Z,82.45
2022-10-22T11:38:38.950Z,82.86
2022-10-22T11:39:38.925Z,83.46
2022-10-22T11:40:38.959Z,83.06
2022-10-22T11:41:38.922Z,83.26
2022-10-22T11:42:38.901Z,82.35
2022-10-22T11:43:38.887Z,82.45
2022-10-22T11:44:39.309Z,81.95
2022-10-22T11:45:38.901Z,80.74
2022-10-22T11:46:38.883Z,81.24
2022-10-22T11:47:39.250Z,81.89
2022-10-22T11:48:38.852Z,81.38
2022-10-22T11:49:38.853Z,81.59
2022-10-22T11:50:38.836Z,82.09
2022-10-22T11:51:38.857Z,81.68
2022-10-22T11:52:38.845Z,81.38
2022-10-22T11:53:38.959Z,81.79
2022-10-22T11:54:38.822Z,81.89
2022-10-22T11:55:38.804Z,82.09
2022-10-22T11:56:38.883Z,82.09
2022-10-22T11:57:38.977Z,81.79
2022-10-22T11:58:38.786Z,82.09
2022-10-22T11:59:38.806Z,81.68
2022-10-22T12:00:38.777Z,81.38
2022-10-22T12:01:38.817Z,81.59
2022-10-22T12:02:39.192Z,81.28
2022-10-22T12:03:38.765Z,81.38
2022-10-22T12:04:38.802Z,81.89
2022-10-22T12:05:39.556Z,81.42
2022-10-22T12:06:39.566Z,81.68
2022-10-22T12:07:38.747Z,81.79
2022-10-22T12:08:39.564Z,81.52
2022-10-22T12:09:38.793Z,81.48
2022-10-22T12:10:39.601Z,81.59
2022-10-22T12:11:39.061Z,81.48
2022-10-22T12:12:39.085Z,80.98
2022-10-22T12:13:38.774Z,81.18
2022-10-22T12:14:38.783Z,80.58
2022-10-22T12:15:38.773Z,80.78
2022-10-22T12:16:55.046Z,80.78
2022-10-22T12:17:39.033Z,81.18
2022-10-22T12:18:38.674Z,81.28
2022-10-22T12:19:38.962Z,81.59
2022-10-22T12:20:38.672Z,81.68
2022-10-22T12:21:38.675Z,81.48
2022-10-22T12:22:39.156Z,80.88
2022-10-22T12:23:38.703Z,81.38
2022-10-22T12:24:38.862Z,81.68
2022-10-22T12:25:38.871Z,82.09
2022-10-22T12:26:38.872Z,81.48
2022-10-22T12:27:39.262Z,81.42
2022-10-22T12:28:39.083Z,81.82
2022-10-22T12:29:38.611Z,82.03
2022-10-22T12:30:38.741Z,81.93
2022-10-22T12:31:39.114Z,82.13
2022-10-22T12:32:38.585Z,81.93
2022-10-22T12:33:38.601Z,81.73
2022-10-22T12:34:39.255Z,81.12
2022-10-22T12:35:38.922Z,81.42
2022-10-22T12:36:38.512Z,81.42
2022-10-22T12:37:39.604Z,81.82
2022-10-22T12:38:39.081Z,82.33
2022-10-22T12:39:38.508Z,82.03
2022-10-22T12:40:38.533Z,82.13
2022-10-22T12:41:39.600Z,81.62
2022-10-22T12:42:38.970Z,81.93
2022-10-22T12:43:38.778Z,81.82
2022-10-22T12:44:38.465Z,81.73
2022-10-22T12:45:39.318Z,82.03
2022-10-22T12:46:38.452Z,81.79
2022-10-22T12:47:39.891Z,81.68
2022-10-22T12:48:39.114Z,81.08
2022-10-22T12:49:39.440Z,80.78
2022-10-22T12:50:38.417Z,80.74
2022-10-22T12:51:38.620Z,80.24
2022-10-22T12:52:38.635Z,80.13
2022-10-22T12:53:38.400Z,79.63
2022-10-22T12:54:38.389Z,79.77
2022-10-22T12:55:38.468Z,79.47
2022-10-22T12:56:38.370Z,79.27